sensor_id;sensor_type;location;lat;lon;timestamp;P1;durP1;ratioP1;P2;durP2;ratioP2
10811;SDS011;5458;51.496;7.334;2023-03-31T09:07:07;6.03;;;2.00;;
10811;SDS011;5458;51.496;7.334;2023-03-31T09:20:38;3.72;;;2.05;;
10811;SDS011;5458;51.496;7.334;2023-03-31T09:25:45;4.55;;;2.40;;
10811;SDS011;5458;51.496;7.334;2023-03-31T09:28:18;4.53;;;2.30;;
10811;SDS011;5458;51.496;7.334;2023-03-31T09:30:46;6.20;;;2.58;;
10811;SDS011;5458;51.496;7.334;2023-03-31T09:33:32;3.53;;;2.60;;
10811;SDS011;5458;51.496;7.334;2023-03-31T09:35:58;4.38;;;2.30;;
10811;SDS011;5458;51.496;7.334;2023-03-31T09:38:25;5.43;;;2.70;;
10811;SDS011;5458;51.496;7.334;2023-03-31T09:40:58;5.88;;;2.33;;
10811;SDS011;5458;51.496;7.334;2023-03-31T09:43:27;5.75;;;3.25;;
10811;SDS011;5458;51.496;7.334;2023-03-31T09:45:54;3.60;;;2.78;;
10811;SDS011;5458;51.496;7.334;2023-03-31T09:48:22;2.97;;;2.10;;
10811;SDS011;5458;51.496;7.334;2023-03-31T09:51:02;3.90;;;1.88;;
10811;SDS011;5458;51.496;7.334;2023-03-31T09:53:44;5.00;;;2.80;;
10811;SDS011;5458;51.496;7.334;2023-03-31T09:56:30;8.75;;;5.07;;
10811;SDS011;5458;51.496;7.334;2023-03-31T09:59:21;12.45;;;6.78;;
10811;SDS011;5458;51.496;7.334;2023-03-31T10:02:50;8.88;;;4.20;;
10811;SDS011;5458;51.496;7.334;2023-03-31T10:04:56;6.55;;;3.42;;
10811;SDS011;5458;51.496;7.334;2023-03-31T10:07:22;5.28;;;3.03;;
10811;SDS011;5458;51.496;7.334;2023-03-31T10:09:49;4.53;;;2.03;;
10811;SDS011;5458;51.496;7.334;2023-03-31T10:12:36;3.90;;;2.17;;
10811;SDS011;5458;51.496;7.334;2023-03-31T10:15:24;6.07;;;2.28;;
10811;SDS011;5458;51.496;7.334;2023-03-31T10:17:51;7.00;;;2.35;;
10811;SDS011;5458;51.496;7.334;2023-03-31T10:20:26;3.58;;;2.22;;
10811;SDS011;5458;51.496;7.334;2023-03-31T10:23:05;5.68;;;2.20;;
10811;SDS011;5458;51.496;7.334;2023-03-31T10:25:47;5.82;;;2.47;;
10811;SDS011;5458;51.496;7.334;2023-03-31T10:28:17;6.90;;;2.65;;
10811;SDS011;5458;51.496;7.334;2023-03-31T10:30:48;4.85;;;1.90;;
10811;SDS011;5458;51.496;7.334;2023-03-31T10:33:22;6.10;;;2.45;;
10811;SDS011;5458;51.496;7.334;2023-03-31T10:35:57;5.60;;;2.80;;
10811;SDS011;5458;51.496;7.334;2023-03-31T10:38:31;3.40;;;2.17;;
10811;SDS011;5458;51.496;7.334;2023-03-31T10:41:04;7.65;;;3.35;;
10811;SDS011;5458;51.496;7.334;2023-03-31T10:43:40;9.70;;;2.50;;
10811;SDS011;5458;51.496;7.334;2023-03-31T10:46:08;8.02;;;2.63;;
10811;SDS011;5458;51.496;7.334;2023-03-31T10:48:34;6.38;;;2.60;;
10811;SDS011;5458;51.496;7.334;2023-03-31T10:51:27;4.25;;;2.45;;
10811;SDS011;5458;51.496;7.334;2023-03-31T10:53:53;7.85;;;2.33;;
10811;SDS011;5458;51.496;7.334;2023-03-31T10:59:18;9.57;;;2.78;;
10811;SDS011;5458;51.496;7.334;2023-03-31T11:10:09;7.93;;;2.53;;
10811;SDS011;5458;51.496;7.334;2023-03-31T11:12:28;8.63;;;2.90;;
10811;SDS011;5458;51.496;7.334;2023-03-31T11:20:25;8.10;;;2.78;;
10811;SDS011;5458;51.496;7.334;2023-03-31T11:26:10;8.60;;;2.97;;
10811;SDS011;5458;51.496;7.334;2023-03-31T11:40:59;4.38;;;1.38;;
10811;SDS011;5458;51.496;7.334;2023-03-31T11:49:23;5.32;;;1.52;;
10811;SDS011;5458;51.496;7.334;2023-03-31T11:51:58;4.80;;;2.20;;
10811;SDS011;5458;51.496;7.334;2023-03-31T11:54:29;3.13;;;1.60;;
10811;SDS011;5458;51.496;7.334;2023-03-31T11:57:01;3.85;;;1.77;;
10811;SDS011;5458;51.496;7.334;2023-03-31T11:59:33;5.13;;;1.70;;
10811;SDS011;5458;51.496;7.334;2023-03-31T12:04:42;4.57;;;1.40;;
10811;SDS011;5458;51.496;7.334;2023-03-31T12:09:59;2.92;;;1.20;;
10811;SDS011;5458;51.496;7.334;2023-03-31T12:12:32;3.47;;;1.70;;
10811;SDS011;5458;51.496;7.334;2023-03-31T12:17:32;2.25;;;1.92;;
10811;SDS011;5458;51.496;7.334;2023-03-31T12:20:01;2.53;;;1.60;;
10811;SDS011;5458;51.496;7.334;2023-03-31T12:22:52;7.03;;;2.08;;
10811;SDS011;5458;51.496;7.334;2023-03-31T12:25:20;5.60;;;1.67;;
10811;SDS011;5458;51.496;7.334;2023-03-31T12:27:55;5.72;;;1.52;;
10811;SDS011;5458;51.496;7.334;2023-03-31T12:30:35;3.72;;;1.92;;
10811;SDS011;5458;51.496;7.334;2023-03-31T12:33:19;5.72;;;1.85;;
10811;SDS011;5458;51.496;7.334;2023-03-31T12:35:55;4.78;;;1.50;;
10811;SDS011;5458;51.496;7.334;2023-03-31T12:38:45;5.70;;;1.88;;
10811;SDS011;5458;51.496;7.334;2023-03-31T13:04:06;6.57;;;1.67;;
10811;SDS011;5458;51.496;7.334;2023-03-31T13:06:51;5.07;;;1.88;;
10811;SDS011;5458;51.496;7.334;2023-03-31T13:11:57;5.53;;;2.40;;
10811;SDS011;5458;51.496;7.334;2023-03-31T13:14:34;7.95;;;2.30;;
10811;SDS011;5458;51.496;7.334;2023-03-31T13:19:46;7.47;;;1.90;;
10811;SDS011;5458;51.496;7.334;2023-03-31T13:28:09;6.38;;;2.55;;
10811;SDS011;5458;51.496;7.334;2023-03-31T13:33:10;8.05;;;2.67;;
10811;SDS011;5458;51.496;7.334;2023-03-31T13:35:40;7.43;;;2.33;;
10811;SDS011;5458;51.496;7.334;2023-03-31T13:38:17;8.13;;;2.40;;
10811;SDS011;5458;51.496;7.334;2023-03-31T13:48:57;6.28;;;2.05;;
10811;SDS011;5458;51.496;7.334;2023-03-31T13:51:37;6.80;;;2.90;;
10811;SDS011;5458;51.496;7.334;2023-03-31T14:06:05;6.07;;;2.20;;
10811;SDS011;5458;51.496;7.334;2023-03-31T14:11:25;4.45;;;2.25;;
10811;SDS011;5458;51.496;7.334;2023-03-31T14:14:12;5.70;;;1.95;;
10811;SDS011;5458;51.496;7.334;2023-03-31T14:16:47;5.30;;;2.13;;
10811;SDS011;5458;51.496;7.334;2023-03-31T14:22:00;3.88;;;2.50;;
10811;SDS011;5458;51.496;7.334;2023-03-31T14:24:58;6.60;;;2.53;;
10811;SDS011;5458;51.496;7.334;2023-03-31T14:27:59;6.20;;;2.20;;
10811;SDS011;5458;51.496;7.334;2023-03-31T14:39:35;3.03;;;1.55;;
10811;SDS011;5458;51.496;7.334;2023-03-31T14:42:10;5.57;;;2.10;;
10811;SDS011;5458;51.496;7.334;2023-03-31T14:44:41;6.25;;;2.38;;
10811;SDS011;5458;51.496;7.334;2023-03-31T14:47:15;5.93;;;1.90;;
10811;SDS011;5458;51.496;7.334;2023-03-31T14:49:45;5.95;;;1.70;;
10811;SDS011;5458;51.496;7.334;2023-03-31T14:52:12;5.80;;;2.13;;
10811;SDS011;5458;51.496;7.334;2023-03-31T14:54:46;5.07;;;1.60;;
10811;SDS011;5458;51.496;7.334;2023-03-31T14:57:18;4.20;;;1.98;;
10811;SDS011;5458;51.496;7.334;2023-03-31T14:59:49;5.13;;;1.58;;
10811;SDS011;5458;51.496;7.334;2023-03-31T15:02:18;7.30;;;2.63;;
10811;SDS011;5458;51.496;7.334;2023-03-31T15:04:53;4.72;;;2.10;;
10811;SDS011;5458;51.496;7.334;2023-03-31T15:07:20;6.38;;;2.10;;
10811;SDS011;5458;51.496;7.334;2023-03-31T15:09:48;4.90;;;2.10;;
10811;SDS011;5458;51.496;7.334;2023-03-31T15:12:16;5.32;;;2.00;;
10811;SDS011;5458;51.496;7.334;2023-03-31T15:14:45;3.33;;;1.55;;
10811;SDS011;5458;51.496;7.334;2023-03-31T15:17:20;5.35;;;2.05;;
10811;SDS011;5458;51.496;7.334;2023-03-31T15:19:52;4.90;;;1.63;;
10811;SDS011;5458;51.496;7.334;2023-03-31T15:22:20;4.72;;;1.70;;
10811;SDS011;5458;51.496;7.334;2023-03-31T15:24:47;3.78;;;1.50;;
10811;SDS011;5458;51.496;7.334;2023-03-31T15:30:03;3.05;;;1.58;;
10811;SDS011;5458;51.496;7.334;2023-03-31T15:32:33;3.88;;;1.50;;
10811;SDS011;5458;51.496;7.334;2023-03-31T15:35:01;4.20;;;1.55;;
10811;SDS011;5458;51.496;7.334;2023-03-31T15:37:38;3.88;;;1.58;;
10811;SDS011;5458;51.496;7.334;2023-03-31T15:40:14;4.72;;;1.50;;
10811;SDS011;5458;51.496;7.334;2023-03-31T15:42:48;4.65;;;2.03;;
10811;SDS011;5458;51.496;7.334;2023-03-31T15:47:55;3.85;;;1.73;;
10811;SDS011;5458;51.496;7.334;2023-03-31T15:50:22;3.13;;;1.52;;
10811;SDS011;5458;51.496;7.334;2023-03-31T15:52:51;2.88;;;1.00;;
10811;SDS011;5458;51.496;7.334;2023-03-31T15:55:28;1.80;;;1.05;;
10811;SDS011;5458;51.496;7.334;2023-03-31T15:58:04;2.92;;;1.10;;
10811;SDS011;5458;51.496;7.334;2023-03-31T16:02:56;2.53;;;1.70;;
10811;SDS011;5458;51.496;7.334;2023-03-31T16:05:28;3.55;;;1.35;;
10811;SDS011;5458;51.496;7.334;2023-03-31T16:08:08;5.82;;;2.40;;
10811;SDS011;5458;51.496;7.334;2023-03-31T16:10:38;5.03;;;1.88;;
10811;SDS011;5458;51.496;7.334;2023-03-31T16:13:05;3.38;;;2.38;;
10811;SDS011;5458;51.496;7.334;2023-03-31T16:15:34;3.13;;;1.38;;
10811;SDS011;5458;51.496;7.334;2023-03-31T16:18:05;3.30;;;1.45;;
10811;SDS011;5458;51.496;7.334;2023-03-31T16:20:39;5.47;;;1.80;;
10811;SDS011;5458;51.496;7.334;2023-03-31T16:23:16;2.85;;;1.48;;
10811;SDS011;5458;51.496;7.334;2023-03-31T16:25:45;2.67;;;1.45;;
10811;SDS011;5458;51.496;7.334;2023-03-31T16:28:12;3.28;;;1.40;;
10811;SDS011;5458;51.496;7.334;2023-03-31T16:30:42;2.78;;;1.30;;
10811;SDS011;5458;51.496;7.334;2023-03-31T16:33:10;1.88;;;1.10;;
10811;SDS011;5458;51.496;7.334;2023-03-31T16:35:38;2.72;;;1.40;;
10811;SDS011;5458;51.496;7.334;2023-03-31T16:38:26;2.05;;;0.90;;
10811;SDS011;5458;51.496;7.334;2023-03-31T16:40:54;2.63;;;1.20;;
10811;SDS011;5458;51.496;7.334;2023-03-31T16:43:25;3.58;;;1.40;;
10811;SDS011;5458;51.496;7.334;2023-03-31T16:45:56;2.75;;;1.25;;
10811;SDS011;5458;51.496;7.334;2023-03-31T16:48:24;2.50;;;1.42;;
10811;SDS011;5458;51.496;7.334;2023-03-31T16:50:51;2.45;;;1.40;;
10811;SDS011;5458;51.496;7.334;2023-03-31T16:53:19;4.40;;;1.63;;
10811;SDS011;5458;51.496;7.334;2023-03-31T16:55:47;5.13;;;1.85;;
10811;SDS011;5458;51.496;7.334;2023-03-31T16:58:13;3.28;;;1.88;;
10811;SDS011;5458;51.496;7.334;2023-03-31T17:00:39;4.20;;;2.10;;
10811;SDS011;5458;51.496;7.334;2023-03-31T17:03:06;3.65;;;1.42;;
10811;SDS011;5458;51.496;7.334;2023-03-31T17:05:52;6.50;;;1.98;;
10811;SDS011;5458;51.496;7.334;2023-03-31T17:08:20;2.30;;;1.25;;
10811;SDS011;5458;51.496;7.334;2023-03-31T17:10:54;3.70;;;1.52;;
10811;SDS011;5458;51.496;7.334;2023-03-31T17:13:22;3.60;;;1.40;;
10811;SDS011;5458;51.496;7.334;2023-03-31T17:15:48;3.30;;;1.42;;
10811;SDS011;5458;51.496;7.334;2023-03-31T17:18:13;5.57;;;1.60;;
10811;SDS011;5458;51.496;7.334;2023-03-31T17:20:39;4.20;;;1.50;;
10811;SDS011;5458;51.496;7.334;2023-03-31T17:23:05;2.28;;;1.40;;
10811;SDS011;5458;51.496;7.334;2023-03-31T17:25:31;2.40;;;1.45;;
10811;SDS011;5458;51.496;7.334;2023-03-31T17:27:58;3.03;;;1.58;;
10811;SDS011;5458;51.496;7.334;2023-03-31T17:30:25;3.25;;;1.98;;
10811;SDS011;5458;51.496;7.334;2023-03-31T17:32:51;3.42;;;1.60;;
10811;SDS011;5458;51.496;7.334;2023-03-31T17:35:17;3.58;;;1.77;;
10811;SDS011;5458;51.496;7.334;2023-03-31T17:37:45;4.15;;;2.13;;
10811;SDS011;5458;51.496;7.334;2023-03-31T17:40:14;4.78;;;1.77;;
10811;SDS011;5458;51.496;7.334;2023-03-31T17:42:40;3.75;;;1.55;;
10811;SDS011;5458;51.496;7.334;2023-03-31T17:45:07;3.05;;;1.40;;
10811;SDS011;5458;51.496;7.334;2023-03-31T17:47:33;4.25;;;1.58;;
10811;SDS011;5458;51.496;7.334;2023-03-31T17:49:58;2.88;;;1.63;;
10811;SDS011;5458;51.496;7.334;2023-03-31T17:52:25;2.97;;;1.35;;
10811;SDS011;5458;51.496;7.334;2023-03-31T17:54:51;4.05;;;1.67;;
10811;SDS011;5458;51.496;7.334;2023-03-31T18:00:27;2.15;;;1.30;;
10811;SDS011;5458;51.496;7.334;2023-03-31T18:02:53;3.38;;;1.60;;
10811;SDS011;5458;51.496;7.334;2023-03-31T18:05:20;3.95;;;1.45;;
10811;SDS011;5458;51.496;7.334;2023-03-31T18:14:55;5.75;;;1.75;;
10811;SDS011;5458;51.496;7.334;2023-03-31T18:17:34;3.90;;;1.30;;
10811;SDS011;5458;51.496;7.334;2023-03-31T18:20:03;3.88;;;1.33;;
10811;SDS011;5458;51.496;7.334;2023-03-31T18:22:30;3.05;;;1.63;;
10811;SDS011;5458;51.496;7.334;2023-03-31T18:24:56;1.80;;;1.33;;
10811;SDS011;5458;51.496;7.334;2023-03-31T18:27:23;3.45;;;1.80;;
10811;SDS011;5458;51.496;7.334;2023-03-31T18:29:49;3.47;;;1.40;;
10811;SDS011;5458;51.496;7.334;2023-03-31T18:32:15;4.15;;;1.50;;
10811;SDS011;5458;51.496;7.334;2023-03-31T18:34:41;3.05;;;1.73;;
10811;SDS011;5458;51.496;7.334;2023-03-31T18:37:07;2.85;;;1.42;;
10811;SDS011;5458;51.496;7.334;2023-03-31T18:39:33;4.32;;;1.95;;
10811;SDS011;5458;51.496;7.334;2023-03-31T18:41:59;4.75;;;1.70;;
10811;SDS011;5458;51.496;7.334;2023-03-31T18:51:46;5.43;;;2.17;;
10811;SDS011;5458;51.496;7.334;2023-03-31T18:55:03;3.00;;;1.70;;
10811;SDS011;5458;51.496;7.334;2023-03-31T18:57:30;2.90;;;2.10;;
10811;SDS011;5458;51.496;7.334;2023-03-31T18:59:57;5.30;;;1.80;;
10811;SDS011;5458;51.496;7.334;2023-03-31T19:02:27;3.25;;;1.65;;
10811;SDS011;5458;51.496;7.334;2023-03-31T19:04:52;2.95;;;1.92;;
10811;SDS011;5458;51.496;7.334;2023-03-31T19:07:18;3.20;;;2.83;;
10811;SDS011;5458;51.496;7.334;2023-03-31T19:09:44;3.72;;;1.70;;
10811;SDS011;5458;51.496;7.334;2023-03-31T19:14:47;2.22;;;1.52;;
10811;SDS011;5458;51.496;7.334;2023-03-31T19:17:13;3.40;;;2.05;;
10811;SDS011;5458;51.496;7.334;2023-03-31T19:19:38;4.70;;;1.52;;
10811;SDS011;5458;51.496;7.334;2023-03-31T19:22:04;3.55;;;1.92;;
10811;SDS011;5458;51.496;7.334;2023-03-31T19:24:29;3.45;;;1.88;;
10811;SDS011;5458;51.496;7.334;2023-03-31T19:26:55;3.97;;;1.73;;
10811;SDS011;5458;51.496;7.334;2023-03-31T19:29:21;3.45;;;1.98;;
10811;SDS011;5458;51.496;7.334;2023-03-31T19:31:47;5.90;;;1.98;;
10811;SDS011;5458;51.496;7.334;2023-03-31T19:34:13;4.25;;;1.58;;
10811;SDS011;5458;51.496;7.334;2023-03-31T19:36:40;3.13;;;1.75;;
10811;SDS011;5458;51.496;7.334;2023-03-31T19:39:06;3.50;;;2.25;;
10811;SDS011;5458;51.496;7.334;2023-03-31T19:41:50;3.70;;;2.00;;
10811;SDS011;5458;51.496;7.334;2023-03-31T19:44:17;2.45;;;1.40;;
10811;SDS011;5458;51.496;7.334;2023-03-31T19:46:42;3.95;;;1.42;;
10811;SDS011;5458;51.496;7.334;2023-03-31T19:49:08;2.17;;;1.42;;
10811;SDS011;5458;51.496;7.334;2023-03-31T19:51:33;4.80;;;1.40;;
10811;SDS011;5458;51.496;7.334;2023-03-31T19:53:59;4.75;;;1.95;;
10811;SDS011;5458;51.496;7.334;2023-03-31T19:56:25;4.22;;;1.40;;
10811;SDS011;5458;51.496;7.334;2023-03-31T19:58:52;3.63;;;1.52;;
10811;SDS011;5458;51.496;7.334;2023-03-31T20:01:22;2.80;;;1.77;;
10811;SDS011;5458;51.496;7.334;2023-03-31T20:03:48;4.53;;;2.33;;
10811;SDS011;5458;51.496;7.334;2023-03-31T20:06:16;2.38;;;1.33;;
10811;SDS011;5458;51.496;7.334;2023-03-31T20:08:50;3.40;;;1.80;;
10811;SDS011;5458;51.496;7.334;2023-03-31T20:11:20;4.40;;;1.23;;
10811;SDS011;5458;51.496;7.334;2023-03-31T20:13:46;1.77;;;1.20;;
10811;SDS011;5458;51.496;7.334;2023-03-31T20:16:13;2.22;;;1.50;;
10811;SDS011;5458;51.496;7.334;2023-03-31T20:18:42;2.25;;;1.20;;
10811;SDS011;5458;51.496;7.334;2023-03-31T20:21:13;3.88;;;1.30;;
10811;SDS011;5458;51.496;7.334;2023-03-31T20:23:41;2.90;;;1.30;;
10811;SDS011;5458;51.496;7.334;2023-03-31T20:26:09;4.35;;;1.20;;
10811;SDS011;5458;51.496;7.334;2023-03-31T20:28:37;7.47;;;1.67;;
10811;SDS011;5458;51.496;7.334;2023-03-31T20:31:10;3.10;;;1.50;;
10811;SDS011;5458;51.496;7.334;2023-03-31T20:33:38;1.70;;;1.50;;
10811;SDS011;5458;51.496;7.334;2023-03-31T20:36:05;4.88;;;1.95;;
10811;SDS011;5458;51.496;7.334;2023-03-31T20:38:32;2.30;;;1.60;;
10811;SDS011;5458;51.496;7.334;2023-03-31T20:41:00;3.25;;;1.58;;
10811;SDS011;5458;51.496;7.334;2023-03-31T20:43:25;7.00;;;1.73;;
10811;SDS011;5458;51.496;7.334;2023-03-31T20:45:55;3.58;;;1.30;;
10811;SDS011;5458;51.496;7.334;2023-03-31T20:48:27;3.03;;;1.77;;
10811;SDS011;5458;51.496;7.334;2023-03-31T20:50:54;3.97;;;1.80;;
10811;SDS011;5458;51.496;7.334;2023-03-31T20:53:20;3.78;;;1.73;;
10811;SDS011;5458;51.496;7.334;2023-03-31T20:55:46;3.08;;;1.90;;
10811;SDS011;5458;51.496;7.334;2023-03-31T20:58:12;6.75;;;2.22;;
10811;SDS011;5458;51.496;7.334;2023-03-31T21:00:37;3.67;;;1.88;;
10811;SDS011;5458;51.496;7.334;2023-03-31T21:03:03;2.30;;;1.48;;
10811;SDS011;5458;51.496;7.334;2023-03-31T21:05:28;3.75;;;2.47;;
10811;SDS011;5458;51.496;7.334;2023-03-31T21:07:54;3.67;;;2.00;;
10811;SDS011;5458;51.496;7.334;2023-03-31T21:10:20;3.83;;;1.70;;
10811;SDS011;5458;51.496;7.334;2023-03-31T21:12:46;3.22;;;2.42;;
10811;SDS011;5458;51.496;7.334;2023-03-31T21:15:13;4.00;;;1.65;;
10811;SDS011;5458;51.496;7.334;2023-03-31T21:17:38;2.13;;;1.98;;
10811;SDS011;5458;51.496;7.334;2023-03-31T21:20:04;2.47;;;1.77;;
10811;SDS011;5458;51.496;7.334;2023-03-31T21:22:30;2.60;;;1.80;;
10811;SDS011;5458;51.496;7.334;2023-03-31T21:24:56;4.38;;;2.15;;
10811;SDS011;5458;51.496;7.334;2023-03-31T21:27:21;3.70;;;2.20;;
10811;SDS011;5458;51.496;7.334;2023-03-31T21:29:47;2.60;;;1.70;;
10811;SDS011;5458;51.496;7.334;2023-03-31T21:32:12;3.65;;;1.90;;
10811;SDS011;5458;51.496;7.334;2023-03-31T21:34:39;1.70;;;1.60;;
10811;SDS011;5458;51.496;7.334;2023-03-31T21:37:05;2.88;;;1.95;;
10811;SDS011;5458;51.496;7.334;2023-03-31T21:39:32;4.22;;;1.90;;
10811;SDS011;5458;51.496;7.334;2023-03-31T21:41:58;4.53;;;2.10;;
10811;SDS011;5458;51.496;7.334;2023-03-31T21:44:24;3.15;;;1.73;;
10811;SDS011;5458;51.496;7.334;2023-03-31T21:46:50;3.88;;;2.00;;
10811;SDS011;5458;51.496;7.334;2023-03-31T21:49:17;3.33;;;2.05;;
10811;SDS011;5458;51.496;7.334;2023-03-31T21:51:43;4.22;;;2.30;;
10811;SDS011;5458;51.496;7.334;2023-03-31T21:54:08;3.72;;;2.10;;
10811;SDS011;5458;51.496;7.334;2023-03-31T21:56:34;4.22;;;2.03;;
10811;SDS011;5458;51.496;7.334;2023-03-31T21:59:00;4.63;;;2.13;;
10811;SDS011;5458;51.496;7.334;2023-03-31T22:01:26;3.67;;;2.00;;
10811;SDS011;5458;51.496;7.334;2023-03-31T22:03:52;5.85;;;2.50;;
10811;SDS011;5458;51.496;7.334;2023-03-31T22:06:18;4.32;;;2.00;;
10811;SDS011;5458;51.496;7.334;2023-03-31T22:08:44;3.45;;;2.28;;
10811;SDS011;5458;51.496;7.334;2023-03-31T22:11:10;5.03;;;2.30;;
10811;SDS011;5458;51.496;7.334;2023-03-31T22:13:36;4.22;;;2.42;;
10811;SDS011;5458;51.496;7.334;2023-03-31T22:16:03;5.30;;;2.50;;
10811;SDS011;5458;51.496;7.334;2023-03-31T22:18:30;4.47;;;2.40;;
10811;SDS011;5458;51.496;7.334;2023-03-31T22:20:55;2.53;;;2.33;;
10811;SDS011;5458;51.496;7.334;2023-03-31T22:23:22;4.55;;;2.17;;
10811;SDS011;5458;51.496;7.334;2023-03-31T22:25:48;7.40;;;2.63;;
10811;SDS011;5458;51.496;7.334;2023-03-31T22:28:14;6.70;;;2.28;;
10811;SDS011;5458;51.496;7.334;2023-03-31T22:30:40;4.93;;;2.10;;
10811;SDS011;5458;51.496;7.334;2023-03-31T22:33:06;3.05;;;1.80;;
10811;SDS011;5458;51.496;7.334;2023-03-31T22:35:32;3.78;;;2.17;;
10811;SDS011;5458;51.496;7.334;2023-03-31T22:37:57;3.03;;;2.03;;
10811;SDS011;5458;51.496;7.334;2023-03-31T22:40:24;3.13;;;1.98;;
10811;SDS011;5458;51.496;7.334;2023-03-31T22:42:49;4.55;;;2.30;;
10811;SDS011;5458;51.496;7.334;2023-03-31T22:45:15;4.53;;;1.95;;
10811;SDS011;5458;51.496;7.334;2023-03-31T22:47:41;4.70;;;1.88;;
10811;SDS011;5458;51.496;7.334;2023-03-31T22:50:07;4.30;;;1.73;;
10811;SDS011;5458;51.496;7.334;2023-03-31T22:52:33;3.63;;;1.70;;
10811;SDS011;5458;51.496;7.334;2023-03-31T22:54:58;3.40;;;2.03;;
10811;SDS011;5458;51.496;7.334;2023-03-31T22:57:24;2.70;;;1.83;;
10811;SDS011;5458;51.496;7.334;2023-03-31T22:59:51;4.90;;;1.73;;
10811;SDS011;5458;51.496;7.334;2023-03-31T23:02:16;3.50;;;1.95;;
10811;SDS011;5458;51.496;7.334;2023-03-31T23:04:42;3.50;;;2.13;;
10811;SDS011;5458;51.496;7.334;2023-03-31T23:07:08;3.15;;;1.70;;
10811;SDS011;5458;51.496;7.334;2023-03-31T23:09:33;4.07;;;2.28;;
10811;SDS011;5458;51.496;7.334;2023-03-31T23:11:59;2.22;;;1.40;;
10811;SDS011;5458;51.496;7.334;2023-03-31T23:14:25;3.22;;;1.75;;
10811;SDS011;5458;51.496;7.334;2023-03-31T23:16:50;2.42;;;1.80;;
10811;SDS011;5458;51.496;7.334;2023-03-31T23:19:16;2.88;;;1.52;;
10811;SDS011;5458;51.496;7.334;2023-03-31T23:21:43;3.22;;;2.28;;
10811;SDS011;5458;51.496;7.334;2023-03-31T23:24:08;2.08;;;1.80;;
10811;SDS011;5458;51.496;7.334;2023-03-31T23:26:35;1.80;;;1.60;;
10811;SDS011;5458;51.496;7.334;2023-03-31T23:29:00;2.20;;;1.50;;
10811;SDS011;5458;51.496;7.334;2023-03-31T23:31:27;3.53;;;1.63;;
10811;SDS011;5458;51.496;7.334;2023-03-31T23:33:55;2.25;;;1.50;;
10811;SDS011;5458;51.496;7.334;2023-03-31T23:36:22;2.63;;;1.52;;
10811;SDS011;5458;51.496;7.334;2023-03-31T23:38:48;3.50;;;1.40;;
10811;SDS011;5458;51.496;7.334;2023-03-31T23:41:15;3.15;;;1.50;;
10811;SDS011;5458;51.496;7.334;2023-03-31T23:43:42;3.30;;;1.60;;
10811;SDS011;5458;51.496;7.334;2023-03-31T23:46:08;2.75;;;1.67;;
10811;SDS011;5458;51.496;7.334;2023-03-31T23:48:35;2.83;;;1.38;;
10811;SDS011;5458;51.496;7.334;2023-03-31T23:51:02;1.90;;;1.30;;
10811;SDS011;5458;51.496;7.334;2023-03-31T23:53:28;1.80;;;1.40;;
10811;SDS011;5458;51.496;7.334;2023-03-31T23:55:55;2.08;;;1.35;;
10811;SDS011;5458;51.496;7.334;2023-03-31T23:58:23;2.45;;;1.38;;
